地図

経路データ

SID SEASON NUMBER BASIN SUBBASIN NAME ISO_TIME NATURE LAT LON WMO_WIND WMO_PRES WMO_AGENCY TRACK_TYPE DIST2LAND LANDFALL IFLAG USA_AGENCY USA_ATCF_ID USA_LAT USA_LON USA_RECORD USA_STATUS USA_WIND USA_PRES USA_SSHS USA_R34_NE USA_R34_SE USA_R34_SW USA_R34_NW USA_R50_NE USA_R50_SE USA_R50_SW USA_R50_NW USA_R64_NE USA_R64_SE USA_R64_SW USA_R64_NW USA_POCI USA_ROCI USA_RMW USA_EYE TOKYO_LAT TOKYO_LON TOKYO_GRADE TOKYO_WIND TOKYO_PRES TOKYO_R50_DIR TOKYO_R50_LONG TOKYO_R50_SHORT TOKYO_R30_DIR TOKYO_R30_LONG TOKYO_R30_SHORT TOKYO_LAND CMA_LAT CMA_LON CMA_CAT CMA_WIND CMA_PRES HKO_LAT HKO_LON HKO_CAT HKO_WIND HKO_PRES NEWDELHI_LAT NEWDELHI_LON NEWDELHI_GRADE NEWDELHI_WIND NEWDELHI_PRES NEWDELHI_CI NEWDELHI_DP NEWDELHI_POCI REUNION_LAT REUNION_LON REUNION_TYPE REUNION_WIND REUNION_PRES REUNION_TNUM REUNION_CI REUNION_RMW REUNION_R34_NE REUNION_R34_SE REUNION_R34_SW REUNION_R34_NW REUNION_R50_NE REUNION_R50_SE REUNION_R50_SW REUNION_R50_NW REUNION_R64_NE REUNION_R64_SE REUNION_R64_SW REUNION_R64_NW BOM_LAT BOM_LON BOM_TYPE BOM_WIND BOM_PRES BOM_TNUM BOM_CI BOM_RMW BOM_R34_NE BOM_R34_SE BOM_R34_SW BOM_R34_NW BOM_R50_NE BOM_R50_SE BOM_R50_SW BOM_R50_NW BOM_R64_NE BOM_R64_SE BOM_R64_SW BOM_R64_NW BOM_ROCI BOM_POCI BOM_EYE BOM_POS_METHOD BOM_PRES_METHOD NADI_LAT NADI_LON NADI_CAT NADI_WIND NADI_PRES WELLINGTON_LAT WELLINGTON_LON WELLINGTON_WIND WELLINGTON_PRES DS824_LAT DS824_LON DS824_STAGE DS824_WIND DS824_PRES TD9636_LAT TD9636_LON TD9636_STAGE TD9636_WIND TD9636_PRES TD9635_LAT TD9635_LON TD9635_WIND TD9635_PRES TD9635_ROCI NEUMANN_LAT NEUMANN_LON NEUMANN_CLASS NEUMANN_WIND NEUMANN_PRES MLC_LAT MLC_LON MLC_CLASS MLC_WIND MLC_PRES USA_GUST BOM_GUST BOM_GUST_PER REUNION_GUST REUNION_GUST_PER USA_SEAHGT USA_SEARAD_NE USA_SEARAD_SE USA_SEARAD_SW USA_SEARAD_NW STORM_SPEED STORM_DIR
1997273N13151 1997 90 WP MM NOT_NAMED 1997-09-29 12:00:00 NR 13.0000 151.000 main 1737 1737 O_____________ jtwc_wp WP261997 13.0000 151.000 15 -1 4 348
1997273N13151 1997 90 WP MM NOT_NAMED 1997-09-29 15:00:00 NR 13.2050 150.953 main 1759 1757 P_____________ WP261997 13.2050 150.953 15 -1 4 347
1997273N13151 1997 90 WP MM NOT_NAMED 1997-09-29 18:00:00 NR 13.4000 150.900 main 1779 1779 O_____________ jtwc_wp WP261997 13.4000 150.900 15 -1 4 345
1997273N13151 1997 90 WP MM NOT_NAMED 1997-09-29 21:00:00 NR 13.5850 150.843 main 1798 1798 P_____________ WP261997 13.5850 150.843 15 -1 4 347
1997273N13151 1997 90 WP MM NOT_NAMED 1997-09-30 00:00:00 NR 13.8000 150.800 main 1820 1820 O_____________ jtwc_wp WP261997 13.8000 150.800 15 -1 5 357
1997273N13151 1997 90 WP MM NOT_NAMED 1997-09-30 03:00:00 NR 14.1000 150.800 main 1853 1853 P_____________ WP261997 14.1000 150.800 15 -1 6 1
1997273N13151 1997 90 WP MM NOT_NAMED 1997-09-30 06:00:00 NR 14.4000 150.800 main 1886 1886 O_____________ jtwc_wp WP261997 14.4000 150.800 15 -1 5 357
1997273N13151 1997 90 WP MM NOT_NAMED 1997-09-30 09:00:00 NR 14.6150 150.758 main 1908 1905 P_____________ WP261997 14.6150 150.758 15 -1 4 347
1997273N13151 1997 90 WP MM NOT_NAMED 1997-09-30 12:00:00 NR 14.8000 150.700 main 1927 1927 O_____________ jtwc_wp WP261997 14.8000 150.700 15 -1 4 345
1997273N13151 1997 90 WP MM NOT_NAMED 1997-09-30 15:00:00 NR 14.9925 150.650 main 1949 1947 P_____________ WP261997 14.9925 150.650 15 -1 4 347
1997273N13151 1997 90 WP MM NOT_NAMED 1997-09-30 18:00:00 NR 15.2000 150.600 main 1969 1969 O_____________ jtwc_wp WP261997 15.2000 150.600 15 -1 5 349
1997273N13151 1997 90 WP MM NOT_NAMED 1997-09-30 21:00:00 NR 15.4425 150.557 main 1991 1991 P_____________ WP261997 15.4425 150.557 15 -1 5 349
1997273N13151 1997 90 WP MM NOT_NAMED 1997-10-01 00:00:00 NR 15.7000 150.500 main 2022 2022 O_____________ jtwc_wp WP261997 15.7000 150.500 15 -1 5 349
1997273N13151 1997 90 WP MM NOT_NAMED 1997-10-01 03:00:00 NR 15.9724 150.452 main 2056 2054 P_____________ WP261997 15.9724 150.452 15 -1 5 339
1997273N13151 1997 90 WP MM NOT_NAMED 1997-10-01 06:00:00 NR 16.2000 150.300 main 2074 2072 O_____________ jtwc_wp WP261997 16.2000 150.300 15 -1 6 311
1997273N13151 1997 90 WP MM NOT_NAMED 1997-10-01 09:00:00 NR 16.3523 149.990 main 2091 2085 P_____________ WP261997 16.3523 149.990 15 -1 8 285
1997273N13151 1997 90 WP MM NOT_NAMED 1997-10-01 12:00:00 NR 16.4000 149.500 main 2085 2078 O_____________ jtwc_wp WP261997 16.4000 149.500 15 -1 11 270
1997273N13151 1997 90 WP MM NOT_NAMED 1997-10-01 15:00:00 NR 16.3524 148.868 main 2078 2051 P_____________ WP261997 16.3524 148.868 15 -1 14 262
1997273N13151 1997 90 WP MM NOT_NAMED 1997-10-01 18:00:00 NR 16.2000 148.100 main 2051 2027 O_____________ jtwc_wp WP261997 16.2000 148.100 15 -1 16 255
1997273N13151 1997 90 WP MM NOT_NAMED 1997-10-01 21:00:00 NR 15.9427 147.249 main 2016 1994 P_____________ WP261997 15.9427 147.249 15 -1 17 253
1997273N13151 1997 90 WP MM NOT_NAMED 1997-10-02 00:00:00 NR 15.7000 146.400 main 1994 1983 O_____________ jtwc_wp WP261997 15.7000 146.400 15 -1 16 256
1997273N13151 1997 90 WP MM NOT_NAMED 1997-10-02 03:00:00 NR 15.5745 145.685 main 1985 1985 P_____________ WP261997 15.5745 145.685 15 -1 14 266
1997273N13151 1997 90 WP MM NOT_NAMED 1997-10-02 06:00:00 NR 15.6000 145.000 main 1990 1990 O_____________ jtwc_wp WP261997 15.6000 145.000 15 -1 14 279
1997273N13151 1997 90 WP MM NOT_NAMED 1997-10-02 09:00:00 NR 15.7972 144.273 main 2021 1989 P_____________ WP261997 15.7972 144.273 17 -1 15 289
1997273N13151 1997 90 WP MM NOT_NAMED 1997-10-02 12:00:00 NR 16.1000 143.500 main 1989 1912 O_____________ jtwc_wp WP261997 16.1000 143.500 20 -1 17 291
1997273N13151 1997 90 WP MM NOT_NAMED 1997-10-02 15:00:00 NR 16.4079 142.605 main 1901 1825 P_____________ WP261997 16.4079 142.605 22 -1 17 290
1997273N13151 1997 90 WP MM NOT_NAMED 1997-10-02 18:00:00 NR 16.7000 141.800 main 1825 1779 O_____________ jtwc_wp WP261997 16.7000 141.800 25 -1 14 292
1997273N13151 1997 90 WP MM NOT_NAMED 1997-10-02 21:00:00 NR 16.9219 141.282 main 1779 1745 P_____________ WP261997 16.9219 141.282 27 -1 10 295
1997273N13151 1997 90 WP MM NOT_NAMED 1997-10-03 00:00:00 NR 17.1000 140.900 main 1745 1707 O_____________ jtwc_wp WP261997 17.1000 140.900 30 -1 8 294
1997273N13151 1997 90 WP MM NOT_NAMED 1997-10-03 03:00:00 NR 17.2650 140.477 main 1710 1673 P_____________ WP261997 17.2650 140.477 30 -1 8 291
1997273N13151 1997 90 WP MM NOT_NAMED 1997-10-03 06:00:00 NR 17.4000 140.100 main 1673 1647 O_____________ jtwc_wp WP261997 17.4000 140.100 30 -1 7 290
1997273N13151 1997 90 WP MM NOT_NAMED 1997-10-03 09:00:00 NR 17.5150 139.762 main 1647 1621 P_____________ WP261997 17.5150 139.762 30 -1 6 289
1997273N13151 1997 90 WP MM NOT_NAMED 1997-10-03 12:00:00 NR 17.6000 139.500 main 1621 1605 O_____________ jtwc_wp WP261997 17.6000 139.500 30 -1 4 289
1997273N13151 1997 90 WP MM NOT_NAMED 1997-10-03 15:00:00 NR 17.6574 139.327 main 1605 1595 P_____________ WP261997 17.6574 139.327 30 -1 3 289
1997273N13151 1997 90 WP MM NOT_NAMED 1997-10-03 18:00:00 NR 17.7000 139.200 main 1595 1585 O_____________ jtwc_wp WP261997 17.7000 139.200 30 -1 3 290
1997273N13151 1997 90 WP MM NOT_NAMED 1997-10-03 21:00:00 NR 17.7575 139.043 main 1579 1569 P_____________ WP261997 17.7575 139.043 30 -1 3 289
1997273N13151 1997 90 WP MM NOT_NAMED 1997-10-04 00:00:00 NR 17.8000 138.900 main 1569 1559 O_____________ jtwc_wp WP261997 17.8000 138.900 30 -1 2 282
1997273N13151 1997 90 WP MM NOT_NAMED 1997-10-04 03:00:00 NR 17.8075 138.792 main 1559 1549 P_____________ WP261997 17.8075 138.792 30 -1 2 270
1997273N13151 1997 90 WP MM NOT_NAMED 1997-10-04 06:00:00 NR 17.8000 138.700 main 1549 1540 O_____________ jtwc_wp WP261997 17.8000 138.700 30 -1 2 268
1997273N13151 1997 90 WP MM NOT_NAMED 1997-10-04 09:00:00 NR 17.8000 138.592 main 1540 1530 P_____________ WP261997 17.8000 138.592 30 -1 2 270
1997273N13151 1997 90 WP MM NOT_NAMED 1997-10-04 12:00:00 NR 17.8000 138.500 main 1530 1520 O_____________ jtwc_wp WP261997 17.8000 138.500 30 -1 1 270
1997273N13151 1997 90 WP MM NOT_NAMED 1997-10-04 15:00:00 NR 17.8000 138.443 main 1520 1520 P_____________ WP261997 17.8000 138.443 30 -1 1 270
1997273N13151 1997 90 WP MM NOT_NAMED 1997-10-04 18:00:00 NR 17.8000 138.400 main 1520 1520 O_____________ jtwc_wp WP261997 17.8000 138.400 30 -1 1 265
1997273N13151 1997 90 WP MM NOT_NAMED 1997-10-04 21:00:00 NR 17.7925 138.357 main 1520 1510 P_____________ WP261997 17.7925 138.357 30 -1 1 270
1997273N13151 1997 90 WP MM NOT_NAMED 1997-10-05 00:00:00 NR 17.8000 138.300 main 1510 1500 O_____________ jtwc_wp WP261997 17.8000 138.300 30 -1 1 287
1997273N13151 1997 90 WP MM NOT_NAMED 1997-10-05 03:00:00 NR 17.8350 138.208 main 1500 1495 P_____________ WP261997 17.8350 138.208 30 -1 2 298
1997273N13151 1997 90 WP MM NOT_NAMED 1997-10-05 06:00:00 NR 17.9000 138.100 main 1495 1485 O_____________ jtwc_wp WP261997 17.9000 138.100 30 -1 2 307
1997273N13151 1997 90 WP MM NOT_NAMED 1997-10-05 09:00:00 NR 17.9775 138.007 main 1490 1480 P_____________ WP261997 17.9775 138.007 30 -1 3 316
1997273N13151 1997 90 WP MM NOT_NAMED 1997-10-05 12:00:00 NR 18.1000 137.900 main 1485 1480 O_____________ jtwc_wp WP261997 18.1000 137.900 30 -1 4 323
1997273N13151 1997 90 WP MM NOT_NAMED 1997-10-05 15:00:00 NR 18.2850 137.765 main 1485 1471 P_____________ WP261997 18.2850 137.765 30 -1 5 325
1997273N13151 1997 90 WP MM NOT_NAMED 1997-10-05 18:00:00 NR 18.5000 137.600 main 1476 1467 O_____________ jtwc_wp WP261997 18.5000 137.600 30 -1 5 323
1997273N13151 1997 90 WP MM NOT_NAMED 1997-10-05 21:00:00 NR 18.7074 137.422 main 1467 1460 P_____________ WP261997 18.7074 137.422 30 -1 6 317
1997273N13151 1997 90 WP MM NOT_NAMED 1997-10-06 00:00:00 NR 18.9000 137.200 main 1460 1438 O_____________ jtwc_wp WP261997 18.9000 137.200 30 -1 6 306
1997273N13151 1997 90 WP MM NOT_NAMED 1997-10-06 03:00:00 NR 19.0575 136.915 main 1443 1422 P_____________ WP261997 19.0575 136.915 30 -1 6 298
1997273N13151 1997 90 WP MM NOT_NAMED 1997-10-06 06:00:00 NR 19.2000 136.600 main 1422 1402 O_____________ jtwc_wp WP261997 19.2000 136.600 30 -1 6 299
1997273N13151 1997 90 WP MM NOT_NAMED 1997-10-06 09:00:00 NR 19.3649 136.315 main 1408 1384 P_____________ WP261997 19.3649 136.315 30 -1 6 298
1997273N13151 1997 90 WP MM NOT_NAMED 1997-10-06 12:00:00 NR 19.5000 136.000 main 1384 1361 O_____________ jtwc_wp WP261997 19.5000 136.000 30 -1 7 288
1997273N13151 1997 90 WP MM NOT_NAMED 1997-10-06 15:00:00 NR 19.5724 135.630 main 1352 1314 P_____________ WP261997 19.5724 135.630 30 -1 8 278
1997273N13151 1997 90 WP MM NOT_NAMED 1997-10-06 18:00:00 NR 19.6000 135.200 main 1314 1277 O_____________ jtwc_wp WP261997 19.6000 135.200 30 -1 9 273
1997273N13151 1997 90 WP MM NOT_NAMED 1997-10-06 21:00:00 NR 19.6149 134.723 main 1268 1222 P_____________ WP261997 19.6149 134.723 27 -1 9 270
1997273N13151 1997 90 WP MM NOT_NAMED 1997-10-07 00:00:00 NR 19.6000 134.200 main 1222 1177 O_____________ jtwc_wp WP261997 19.6000 134.200 25 -1 10 267
1997273N13151 1997 90 WP MM NOT_NAMED 1997-10-07 03:00:00 NR 19.5650 133.643 main 1168 1118 P_____________ WP261997 19.5650 133.643 25 -1 10 264
1997273N13151 1997 90 WP MM NOT_NAMED 1997-10-07 06:00:00 NR 19.5000 133.100 main 1118 1077 O_____________ jtwc_wp WP261997 19.5000 133.100 25 -1 10 261
1997273N13151 1997 90 WP MM NOT_NAMED 1997-10-07 09:00:00 NR 19.4073 132.635 main 1068 1027 P_____________ WP261997 19.4073 132.635 25 -1 9 257
1997273N13151 1997 90 WP MM NOT_NAMED 1997-10-07 12:00:00 NR 19.3000 132.200 main 1027 986 O_____________ jtwc_wp WP261997 19.3000 132.200 25 -1 9 256
1997273N13151 1997 90 WP MM NOT_NAMED 1997-10-07 15:00:00 NR 19.1978 131.755 main 986 937 P_____________ WP261997 19.1978 131.755 25 -1 9 257
1997273N13151 1997 90 WP MM NOT_NAMED 1997-10-07 18:00:00 NR 19.1000 131.300 main 937 O_____________ jtwc_wp WP261997 19.1000 131.300 25 -1 9 257

デジタル台風データ・検索

IBTrACS Databaseについて

本データベースは、米国NOAAが公開する1842年以降の世界の熱帯低気圧のベストトラックデータアーカイブInternational Best Track Archive for Climate Stewardship (IBTrACS)を、ウェブで閲覧しやすい形式に変換したものです。

最終更新日:2021-10-25